Time;durP1;ratioP1;P1;durP2;ratioP2;P2;SDS_P1;SDS_P2;PMS_P1;PMS_P2;Temp;Humidity;BMP_temperature;BMP_pressure;BME280_temperature;BME280_humidity;BME280_pressure;Samples;Min_cycle;Max_cycle;Signal;HPM_P1;HPM_P2
2021/12/04 00:00:27;;;;;;;22.02;9.90;;;;;;;-0.69;63.17;98397.20;1731299;82;21489;-43
2021/12/04 00:02:54;;;;;;;27.85;11.28;;;;;;;-0.68;63.33;98397.17;1731259;82;21512;-42
2021/12/04 00:05:21;;;;;;;28.55;11.55;;;;;;;-0.69;63.01;98397.20;1731136;82;21011;-42
2021/12/04 00:07:47;;;;;;;27.45;10.82;;;;;;;-0.75;63.12;98390.91;1731150;83;21500;-42
2021/12/04 00:10:18;;;;;;;25.77;10.43;;;;;;;-0.71;63.28;98395.11;1731171;82;20987;-43
2021/12/04 00:12:42;;;;;;;27.20;10.68;;;;;;;-0.69;63.08;98398.08;1730841;81;21027;-42
2021/12/04 00:15:09;;;;;;;24.43;10.05;;;;;;;-0.81;63.36;98385.45;1731407;82;21523;-41
2021/12/04 00:17:35;;;;;;;24.70;11.27;;;;;;;-0.75;63.19;98386.59;1731571;82;21042;-43
2021/12/04 00:20:04;;;;;;;39.03;11.90;;;;;;;-0.85;63.23;98383.38;1731596;82;21010;-42
2021/12/04 00:22:29;;;;;;;28.65;11.75;;;;;;;-0.78;63.46;98385.39;1731284;83;21433;-42
2021/12/04 00:24:55;;;;;;;23.80;10.80;;;;;;;-0.74;63.46;98377.13;1731262;82;21123;-42
2021/12/04 00:27:21;;;;;;;25.82;11.65;;;;;;;-0.69;63.33;98376.55;1731275;83;21007;-42
2021/12/04 00:29:47;;;;;;;23.05;10.00;;;;;;;-0.76;63.56;98365.55;1731303;82;20995;-41
2021/12/04 00:32:26;;;;;;;26.55;10.98;;;;;;;-0.84;63.57;98355.37;1731327;82;20971;-41
2021/12/04 00:34:46;;;;;;;31.00;11.60;;;;;;;-0.85;63.83;98355.45;1730061;82;20991;-42
2021/12/04 00:50:50;;;;;;;26.10;10.55;;;;;;;-0.85;64.13;98339.95;1731315;81;21014;-42
2021/12/04 00:53:16;;;;;;;24.30;10.70;;;;;;;-0.91;64.30;98342.66;1731517;82;21483;-42
2021/12/04 00:55:42;;;;;;;23.83;10.48;;;;;;;-0.91;64.23;98342.25;1731279;82;20995;-42
2021/12/04 00:58:08;;;;;;;21.97;9.63;;;;;;;-0.90;64.35;98336.19;1731302;82;21006;-42
2021/12/04 01:00:34;;;;;;;21.00;9.53;;;;;;;-0.95;64.30;98334.16;1730693;82;21054;-42
2021/12/04 01:03:00;;;;;;;20.55;10.32;;;;;;;-0.89;64.55;98334.44;1730299;82;21043;-43
2021/12/04 01:05:26;;;;;;;20.70;9.15;;;;;;;-0.93;64.60;98337.98;1730362;82;21039;-43
2021/12/04 01:07:51;;;;;;;20.25;9.78;;;;;;;-0.89;64.63;98322.41;1730304;82;21107;-43
2021/12/04 01:10:18;;;;;;;20.55;10.13;;;;;;;-0.92;64.66;98314.73;1730339;82;21026;-42
2021/12/04 01:12:43;;;;;;;22.62;9.75;;;;;;;-0.92;64.66;98314.73;1731281;82;21060;-42
2021/12/04 01:15:10;;;;;;;15.00;7.40;;;;;;;-0.88;64.32;98313.76;1731232;82;20985;-43
2021/12/04 01:17:36;;;;;;;18.12;8.63;;;;;;;-0.91;64.74;98312.56;1731287;83;20984;-42
2021/12/04 01:20:03;;;;;;;18.07;8.23;;;;;;;-1.04;64.48;98312.44;1731289;82;20999;-43
2021/12/04 01:22:29;;;;;;;21.77;9.35;;;;;;;-0.98;64.70;98300.70;1731596;82;21046;-42
2021/12/04 01:24:55;;;;;;;20.15;8.58;;;;;;;-0.94;64.45;98307.47;1731245;83;21026;-42
2021/12/04 01:27:22;;;;;;;20.90;9.68;;;;;;;-0.92;64.53;98297.95;1731161;82;21151;-42
2021/12/04 01:29:48;;;;;;;21.00;9.28;;;;;;;-0.88;64.57;98298.27;1731362;82;20975;-43
2021/12/04 01:32:14;;;;;;;20.48;9.28;;;;;;;-0.87;64.41;98297.41;1731354;82;20959;-42
2021/12/04 01:34:40;;;;;;;19.27;8.30;;;;;;;-0.77;64.40;98294.13;1731307;83;21476;-42
2021/12/04 01:37:05;;;;;;;17.95;9.05;;;;;;;-0.75;64.26;98281.19;1731384;83;20999;-42
2021/12/04 01:39:31;;;;;;;16.35;8.30;;;;;;;-0.79;64.27;98276.09;1731367;83;20972;-42
2021/12/04 01:41:58;;;;;;;19.25;9.10;;;;;;;-0.73;64.20;98274.25;1731264;82;20995;-42
2021/12/04 01:44:23;;;;;;;18.65;8.63;;;;;;;-0.73;64.21;98271.22;1731172;82;21050;-42
2021/12/04 01:46:55;;;;;;;19.52;8.48;;;;;;;-0.69;64.26;98283.60;1731243;82;20963;-42
2021/12/04 01:49:17;;;;;;;17.82;8.35;;;;;;;-0.74;64.02;98281.16;1730633;81;21038;-42
2021/12/04 01:51:43;;;;;;;31.85;8.38;;;;;;;-0.70;64.05;98277.59;1731335;82;21484;-42
2021/12/04 01:54:08;;;;;;;23.57;9.50;;;;;;;-0.72;63.98;98272.08;1731300;82;21046;-42
2021/12/04 01:56:34;;;;;;;21.60;9.05;;;;;;;-0.71;64.06;98273.34;1731234;82;20971;-42
2021/12/04 01:59:02;;;;;;;21.37;7.95;;;;;;;-0.71;63.93;98278.92;1731221;83;20987;-42
2021/12/04 02:01:31;;;;;;;15.90;8.68;;;;;;;-0.73;63.91;98273.80;1731240;82;21469;-42
2021/12/04 02:03:56;;;;;;;17.30;8.00;;;;;;;-0.72;63.92;98272.08;1731104;82;21488;-42
2021/12/04 02:06:21;;;;;;;18.25;8.43;;;;;;;-0.85;64.09;98280.14;1731299;83;20991;-42
2021/12/04 02:08:47;;;;;;;19.90;8.63;;;;;;;-0.85;64.09;98280.14;1731266;82;20986;-42
2021/12/04 02:11:13;;;;;;;18.50;8.33;;;;;;;-0.78;63.78;98275.22;1731251;82;21023;-43
2021/12/04 02:13:39;;;;;;;17.90;8.55;;;;;;;-0.82;63.62;98265.88;1731229;81;20972;-42
2021/12/04 02:16:19;;;;;;;13.68;7.40;;;;;;;-0.79;63.80;98264.48;1731208;83;21035;-42
2021/12/04 02:18:46;;;;;;;17.57;8.08;;;;;;;-0.75;63.65;98265.25;1731225;82;21527;-42
2021/12/04 02:21:13;;;;;;;18.45;7.62;;;;;;;-0.74;63.83;98254.50;1731345;82;21003;-42
2021/12/04 02:23:39;;;;;;;17.37;8.23;;;;;;;-0.82;63.52;98254.26;1731363;83;20999;-42
2021/12/04 02:26:05;;;;;;;21.60;8.68;;;;;;;-0.81;63.79;98250.77;1731040;81;21031;-42
2021/12/04 02:28:31;;;;;;;16.15;8.23;;;;;;;-0.77;63.94;98251.08;1731311;82;21456;-42
2021/12/04 02:30:57;;;;;;;20.57;8.20;;;;;;;-0.72;63.99;98248.85;1731532;82;21571;-42
2021/12/04 02:33:23;;;;;;;19.55;8.13;;;;;;;-0.70;64.06;98254.36;1731303;82;20991;-42
2021/12/04 02:35:52;;;;;;;18.90;8.13;;;;;;;-0.72;63.92;98243.69;1731203;82;20995;-42
2021/12/04 02:38:23;;;;;;;14.50;7.17;;;;;;;-0.74;64.22;98241.59;1731206;82;21007;-42
2021/12/04 02:40:50;;;;;;;21.27;8.98;;;;;;;-0.84;64.21;98236.64;1731250;82;20995;-42
2021/12/04 02:43:16;;;;;;;;;;;;;;;-0.72;64.52;98232.07;1733838;82;21003;-42
2021/12/04 02:45:43;;;;;;;18.25;8.18;;;;;;;-0.75;64.87;98221.81;1731223;82;20110;-42
2021/12/04 02:48:10;;;;;;;17.70;8.38;;;;;;;-0.77;64.72;98220.11;1731347;82;21539;-42
2021/12/04 02:50:37;;;;;;;19.92;8.98;;;;;;;-0.69;64.88;98217.77;1731343;82;20987;-42
2021/12/04 02:53:02;;;;;;;21.23;7.92;;;;;;;-0.70;64.63;98218.22;1731157;83;21483;-42
2021/12/04 02:55:28;;;;;;;20.02;8.90;;;;;;;-0.68;64.81;98201.40;1731295;82;20994;-42
2021/12/04 02:57:54;;;;;;;29.90;10.48;;;;;;;-0.66;64.67;98195.75;1731201;82;21003;-42
2021/12/04 03:00:25;;;;;;;21.40;8.45;;;;;;;-0.61;64.71;98193.89;1731221;82;20987;-42
2021/12/04 03:02:53;;;;;;;20.10;9.40;;;;;;;-0.55;64.66;98193.70;1731340;81;20995;-42
2021/12/04 03:05:24;;;;;;;16.75;8.43;;;;;;;-0.60;64.56;98186.52;1731296;82;21512;-42
2021/12/04 03:07:54;;;;;;;17.98;8.63;;;;;;;-0.56;64.60;98184.28;1731088;82;20959;-42
2021/12/04 03:10:20;;;;;;;17.85;8.45;;;;;;;-0.60;65.19;98187.81;1731368;81;21007;-42
2021/12/04 03:12:46;;;;;;;19.10;7.97;;;;;;;-0.50;64.75;98187.97;1731411;83;21465;-43
2021/12/04 03:15:13;;;;;;;16.45;8.23;;;;;;;-0.50;64.69;98184.55;1731266;82;21496;-42
2021/12/04 03:17:39;;;;;;;18.17;9.08;;;;;;;-0.47;64.62;98177.56;1731577;83;21044;-42
2021/12/04 03:20:06;;;;;;;16.65;8.05;;;;;;;-0.40;64.65;98173.91;1731280;82;20987;-42
2021/12/04 03:22:33;;;;;;;15.03;7.30;;;;;;;-0.34;64.56;98166.43;1731197;82;20975;-42
2021/12/04 03:24:59;;;;;;;15.80;8.35;;;;;;;-0.39;64.67;98162.67;1731395;82;21432;-42
2021/12/04 03:27:27;;;;;;;16.25;7.60;;;;;;;-0.33;64.66;98155.64;1723375;82;21008;-42
2021/12/04 03:29:58;;;;;;;18.23;6.60;;;;;;;-0.29;64.83;98147.77;1718406;82;21043;-42
2021/12/04 03:32:54;;;;;;;15.28;7.53;;;;;;;-0.24;64.55;98150.20;1731807;83;20960;-42
2021/12/04 03:39:59;;;;;;;12.30;6.72;;;;;;;-0.32;64.65;98141.84;1716757;82;21485;-42
2021/12/04 03:43:00;;;;;;;16.17;7.40;;;;;;;-0.22;64.72;98145.83;1718284;82;21052;-42
2021/12/04 03:45:26;;;;;;;14.80;6.97;;;;;;;-0.20;64.85;98149.20;1718371;83;21007;-42
2021/12/04 03:47:57;;;;;;;12.15;6.05;;;;;;;-0.20;64.61;98147.49;1718640;82;20995;-42
2021/12/04 03:50:20;;;;;;;15.88;7.53;;;;;;;-0.25;64.87;98148.07;1718247;83;21047;-42
2021/12/04 03:52:46;;;;;;;13.95;7.30;;;;;;;-0.28;64.88;98149.45;1718453;82;21435;-42
2021/12/04 03:55:12;;;;;;;13.45;6.72;;;;;;;-0.20;64.88;98135.00;1718444;83;20968;-42
2021/12/04 03:57:44;;;;;;;11.10;6.30;;;;;;;-0.14;64.62;98140.00;1718439;82;21042;-42
2021/12/04 04:00:06;;;;;;;;;;;;;;;-0.12;64.64;98137.38;1720157;83;20995;-42
2021/12/04 04:02:32;;;;;;;12.13;6.15;;;;;;;-0.18;64.55;98140.13;1718595;82;20107;-42
2021/12/04 04:04:58;;;;;;;16.40;7.08;;;;;;;-0.20;64.68;98140.16;1718491;82;21000;-42
2021/12/04 04:07:24;;;;;;;13.68;6.70;;;;;;;-0.18;64.71;98128.07;1718419;83;20999;-42
2021/12/04 04:09:50;;;;;;;12.98;6.53;;;;;;;-0.16;64.90;98129.29;1718454;82;20999;-42
2021/12/04 04:12:15;;;;;;;14.65;6.92;;;;;;;-0.14;64.61;98130.95;1718412;82;21014;-43
2021/12/04 04:14:41;;;;;;;17.85;6.10;;;;;;;-0.13;64.58;98129.20;1718562;82;21651;-42
2021/12/04 04:17:07;;;;;;;10.55;6.08;;;;;;;-0.11;64.21;98121.83;1718511;82;20999;-42
2021/12/04 04:19:32;;;;;;;13.83;6.72;;;;;;;-0.11;64.21;98121.83;1718559;82;21035;-42
2021/12/04 04:21:58;;;;;;;14.23;5.80;;;;;;;-0.05;64.46;98125.50;1718551;82;21504;-42
2021/12/04 04:24:27;;;;;;;9.00;5.28;;;;;;;0.03;64.27;98121.83;1718499;82;21477;-43
2021/12/04 04:26:54;;;;;;;13.80;6.30;;;;;;;0.09;64.30;98121.62;1722153;82;21027;-43
2021/12/04 04:29:20;;;;;;;12.05;6.58;;;;;;;0.09;64.08;98119.04;1731438;82;21507;-43
2021/12/04 04:31:47;;;;;;;15.13;5.90;;;;;;;0.14;64.17;98121.03;1731413;82;20998;-43
2021/12/04 04:34:28;;;;;;;13.93;6.55;;;;;;;0.10;63.83;98118.16;1731472;82;21002;-43
2021/12/04 05:11:46;;;;;;;8.70;5.42;;;;;;;0.29;63.41;98075.31;1731474;83;20979;-41
2021/12/04 05:14:17;;;;;;;9.83;5.78;;;;;;;0.30;63.03;98070.97;1731054;82;21496;-42
2021/12/04 05:16:51;;;;;;;;;;;;;;;0.32;63.10;98071.30;1733101;82;20987;-41
2021/12/04 05:19:12;;;;;;;11.15;4.62;;;;;;;0.30;62.81;98073.56;1727051;82;20103;-41
2021/12/04 05:21:33;;;;;;;14.10;5.17;;;;;;;0.35;62.82;98075.09;1730551;82;20987;-41
2021/12/04 05:23:58;;;;;;;7.92;4.72;;;;;;;0.28;62.74;98067.14;1731415;82;21523;-41
2021/12/04 05:26:28;;;;;;;8.85;4.83;;;;;;;0.33;62.89;98068.30;1731433;83;21464;-41
2021/12/04 05:28:59;;;;;;;8.78;4.85;;;;;;;0.31;63.12;98065.75;1731366;81;21015;-41
2021/12/04 05:31:25;;;;;;;7.67;4.50;;;;;;;0.35;62.83;98066.04;1731514;82;21460;-41
2021/12/04 05:33:51;;;;;;;10.60;4.90;;;;;;;0.36;62.62;98067.74;1731350;82;21003;-41
2021/12/04 05:36:18;;;;;;;11.55;5.20;;;;;;;0.31;62.16;98060.58;1731354;83;20975;-41
2021/12/04 05:38:44;;;;;;;8.45;5.00;;;;;;;0.33;62.21;98060.08;1731490;82;20976;-42
2021/12/04 05:41:11;;;;;;;12.82;4.83;;;;;;;0.31;62.23;98059.72;1731448;82;21508;-41
2021/12/04 05:43:37;;;;;;;8.98;5.12;;;;;;;0.32;62.22;98062.25;1731309;82;20983;-41
2021/12/04 05:48:50;;;;;;;8.63;5.12;;;;;;;0.22;62.01;98057.44;1731354;82;21082;-41
2021/12/04 05:51:31;;;;;;;10.43;5.17;;;;;;;0.35;62.25;98054.86;1730911;82;21062;-41
2021/12/04 05:53:57;;;;;;;8.13;5.53;;;;;;;0.43;62.35;98056.72;1730430;82;20978;-41
2021/12/04 05:56:22;;;;;;;6.58;4.80;;;;;;;0.34;61.75;98059.16;1731027;82;20971;-43
2021/12/04 05:58:49;;;;;;;8.03;5.00;;;;;;;0.45;61.84;98061.39;1731315;83;20991;-42
2021/12/04 06:01:16;;;;;;;16.45;4.75;;;;;;;0.51;62.19;98061.20;1731391;82;21006;-42
2021/12/04 06:03:42;;;;;;;10.78;5.35;;;;;;;0.43;61.95;98059.77;1731406;82;21551;-42
2021/12/04 06:06:08;;;;;;;9.25;5.20;;;;;;;0.49;61.83;98055.66;1731291;82;21030;-42
2021/12/04 06:08:34;;;;;;;6.72;4.87;;;;;;;0.51;61.83;98057.32;1731403;82;20975;-42
2021/12/04 06:11:01;;;;;;;10.63;5.55;;;;;;;0.50;61.85;98052.19;1731254;82;21005;-42
2021/12/04 06:13:27;;;;;;;8.23;5.20;;;;;;;0.43;61.76;98063.64;1731286;82;21002;-43
2021/12/04 06:15:53;;;;;;;12.18;5.65;;;;;;;0.45;61.94;98064.44;1731254;82;21011;-42
2021/12/04 06:18:21;;;;;;;14.33;5.83;;;;;;;0.49;62.13;98061.70;1731311;82;20991;-42
2021/12/04 06:23:32;;;;;;;14.10;6.00;;;;;;;0.49;62.03;98063.42;1731258;83;20130;-42
2021/12/04 06:25:58;;;;;;;;;;;;;;;0.51;62.26;98067.66;1733853;82;21007;-43
2021/12/04 06:28:24;;;;;;;8.30;5.72;;;;;;;0.31;61.72;98063.17;1731243;82;20123;-42
2021/12/04 06:30:51;;;;;;;44.00;6.60;;;;;;;0.49;62.08;98053.95;1731393;82;21504;-42
2021/12/04 06:33:17;;;;;;;11.40;5.53;;;;;;;0.52;62.08;98055.11;1731452;82;20967;-43
2021/12/04 06:35:46;;;;;;;8.40;6.12;;;;;;;0.49;62.08;98047.91;1731552;82;21003;-43
2021/12/04 06:38:16;;;;;;;12.40;6.65;;;;;;;0.47;62.28;98060.05;1731291;81;21010;-43
2021/12/04 06:40:44;;;;;;;8.73;5.92;;;;;;;0.48;62.05;98050.11;1731344;82;21046;-42
2021/12/04 06:43:10;;;;;;;9.23;5.65;;;;;;;0.51;62.27;98049.98;1731278;83;21492;-42
2021/12/04 06:45:41;;;;;;;7.95;4.90;;;;;;;0.55;62.19;98046.42;1731277;82;20995;-43
2021/12/04 06:48:11;;;;;;;11.70;6.42;;;;;;;0.52;62.47;98044.77;1731208;82;20955;-43
2021/12/04 06:53:15;;;;;;;10.28;6.58;;;;;;;0.49;62.62;98046.61;1731290;83;21529;-43
2021/12/04 06:55:38;;;;;;;11.03;6.70;;;;;;;0.56;62.65;98050.67;1729582;82;21425;-43
2021/12/04 06:57:59;;;;;;;;;;;;;;;0.52;62.67;98045.22;1733246;81;20995;-43
2021/12/04 07:00:26;;;;;;;9.00;5.47;;;;;;;0.56;62.52;98033.86;1731267;82;20164;-43
2021/12/04 07:02:51;;;;;;;9.17;6.40;;;;;;;0.60;62.69;98040.64;1731510;82;20995;-43
2021/12/04 07:05:17;;;;;;;21.73;7.47;;;;;;;0.56;62.68;98046.80;1731439;82;20987;-43
2021/12/04 07:07:43;;;;;;;14.98;6.90;;;;;;;0.63;62.82;98039.22;1731362;83;21649;-42
2021/12/04 07:10:09;;;;;;;13.62;7.33;;;;;;;0.66;62.77;98041.70;1731307;82;21030;-43
2021/12/04 07:12:35;;;;;;;12.88;7.42;;;;;;;0.74;62.65;98037.09;1731257;82;20967;-43
2021/12/04 07:15:01;;;;;;;14.50;7.33;;;;;;;0.79;62.71;98034.81;1731231;83;21034;-42
2021/12/04 07:17:27;;;;;;;11.85;7.80;;;;;;;0.86;62.60;98044.04;1731333;82;21059;-42
2021/12/04 07:19:52;;;;;;;14.18;7.83;;;;;;;0.87;62.45;98043.13;1731357;82;21500;-43
2021/12/04 07:22:18;;;;;;;10.72;7.00;;;;;;;0.91;62.43;98044.69;1731404;82;21485;-42
2021/12/04 07:24:44;;;;;;;11.70;7.05;;;;;;;0.89;62.25;98046.07;1731198;82;21430;-42
2021/12/04 07:27:10;;;;;;;12.90;7.85;;;;;;;0.90;62.31;98041.27;1731242;82;21002;-42
2021/12/04 07:29:35;;;;;;;11.18;7.37;;;;;;;0.96;62.39;98044.08;1731275;83;20987;-42
2021/12/04 07:32:02;;;;;;;16.20;7.60;;;;;;;1.01;62.49;98037.00;1731249;82;20963;-43
2021/12/04 07:34:28;;;;;;;14.33;8.15;;;;;;;0.98;61.82;98029.80;1731515;82;21381;-43
2021/12/04 07:36:53;;;;;;;15.98;7.47;;;;;;;0.91;61.62;98025.28;1731356;82;20971;-43
2021/12/04 07:39:19;;;;;;;13.62;7.00;;;;;;;1.01;61.98;98027.10;1731331;82;21480;-43
2021/12/04 07:41:45;;;;;;;13.30;7.50;;;;;;;1.03;61.97;98027.42;1731323;83;21827;-42
2021/12/04 07:44:11;;;;;;;13.53;7.60;;;;;;;0.95;61.80;98031.59;1731294;82;20983;-42
2021/12/04 07:46:39;;;;;;;11.63;6.92;;;;;;;1.00;61.70;98031.88;1731283;83;21480;-42
2021/12/04 07:49:05;;;;;;;12.20;7.53;;;;;;;1.07;61.92;98028.99;1731356;82;20991;-43
2021/12/04 07:51:32;;;;;;;10.82;7.20;;;;;;;0.97;61.49;98021.19;1731366;82;21535;-43
2021/12/04 07:53:58;;;;;;;18.67;8.25;;;;;;;1.06;61.65;98023.44;1731277;83;20979;-43
2021/12/04 07:56:24;;;;;;;15.90;9.43;;;;;;;0.98;61.20;98018.98;1731263;82;21485;-43
2021/12/04 07:58:50;;;;;;;20.20;9.18;;;;;;;1.08;61.73;98017.75;1731261;82;20975;-43
2021/12/04 08:01:17;;;;;;;14.58;8.18;;;;;;;1.09;61.48;98019.87;1731231;82;20999;-43
2021/12/04 08:03:43;;;;;;;19.35;8.13;;;;;;;1.10;61.46;98017.23;1731245;83;21054;-43
2021/12/04 08:06:09;;;;;;;13.62;7.70;;;;;;;1.09;61.12;98018.16;1731213;83;21003;-43
2021/12/04 08:08:34;;;;;;;13.45;7.72;;;;;;;1.09;61.24;98022.47;1731358;82;21646;-43
2021/12/04 08:11:02;;;;;;;14.03;8.20;;;;;;;1.18;61.33;98018.70;1731254;82;20972;-43
2021/12/04 08:13:28;;;;;;;17.35;8.63;;;;;;;1.21;61.36;98017.30;1731369;82;21492;-43
2021/12/04 08:15:54;;;;;;;12.33;7.15;;;;;;;1.25;60.79;98020.16;1731321;82;21150;-44
2021/12/04 08:18:21;;;;;;;11.78;7.05;;;;;;;1.19;60.17;98022.98;1731252;83;21438;-43
2021/12/04 08:20:48;;;;;;;11.83;7.05;;;;;;;1.29;60.88;98017.83;1731358;82;21038;-43
2021/12/04 08:23:13;;;;;;;13.25;7.70;;;;;;;1.32;60.64;98016.43;1731328;82;20991;-43
2021/12/04 08:25:40;;;;;;;31.75;6.65;;;;;;;1.38;60.69;98013.59;1731272;82;21480;-43
2021/12/04 08:28:06;;;;;;;15.13;7.72;;;;;;;1.23;59.47;98020.67;1731283;81;21614;-43
2021/12/04 08:30:36;;;;;;;13.55;7.95;;;;;;;1.31;60.15;98018.61;1731158;82;20999;-43
2021/12/04 08:33:00;;;;;;;13.08;7.30;;;;;;;1.35;60.08;98018.91;1731050;82;21027;-43
2021/12/04 08:35:31;;;;;;;11.55;6.92;;;;;;;1.46;59.97;98023.68;1731463;82;20994;-43
2021/12/04 08:37:58;;;;;;;11.73;7.60;;;;;;;1.52;59.94;98017.79;1731394;82;20991;-42
2021/12/04 08:40:26;;;;;;;15.30;6.85;;;;;;;1.61;60.31;98030.00;1731495;83;21519;-42
2021/12/04 08:42:52;;;;;;;10.75;6.58;;;;;;;1.54;59.10;98022.45;1731374;82;21030;-42
2021/12/04 08:45:18;;;;;;;11.65;7.37;;;;;;;1.56;59.70;98026.28;1731457;82;21542;-42
2021/12/04 08:47:45;;;;;;;13.80;7.35;;;;;;;1.64;59.54;98028.14;1731470;82;20991;-42
2021/12/04 08:50:19;;;;;;;18.23;7.75;;;;;;;1.57;58.40;98024.56;1731570;83;20994;-42
2021/12/04 08:52:45;;;;;;;20.48;9.35;;;;;;;1.55;59.00;98027.20;1731484;82;20994;-42
2021/12/04 08:55:13;;;;;;;16.37;7.67;;;;;;;1.66;58.93;98021.61;1731382;82;20999;-42
2021/12/04 08:57:39;;;;;;;14.30;7.53;;;;;;;1.70;59.06;98031.77;1731449;82;20999;-42
2021/12/04 09:00:13;;;;;;;14.45;7.60;;;;;;;1.77;58.87;98030.25;1731474;82;20987;-43
2021/12/04 09:02:39;;;;;;;16.15;7.90;;;;;;;1.82;58.70;98030.45;1729743;81;20967;-42
2021/12/04 09:05:08;;;;;;;12.30;7.05;;;;;;;1.88;58.60;98027.61;1731438;83;21512;-43
2021/12/04 09:07:34;;;;;;;16.10;7.08;;;;;;;1.87;57.38;98034.14;1731334;83;21007;-43
2021/12/04 09:10:00;;;;;;;12.07;6.55;;;;;;;1.88;57.70;98031.49;1731295;82;21035;-44
2021/12/04 09:12:27;;;;;;;11.25;6.08;;;;;;;1.94;57.62;98029.56;1731458;82;21035;-43
2021/12/04 09:14:56;;;;;;;12.18;6.70;;;;;;;2.01;58.16;98025.81;1731434;82;20999;-43
2021/12/04 09:17:22;;;;;;;16.12;6.60;;;;;;;2.05;57.27;98026.91;1731346;83;21516;-43
2021/12/04 09:19:49;;;;;;;8.95;5.95;;;;;;;2.09;57.46;98026.33;1731372;82;20967;-43
2021/12/04 09:22:17;;;;;;;12.45;6.67;;;;;;;2.14;57.39;98023.09;1731480;82;21003;-43
2021/12/04 09:24:47;;;;;;;;;;;;;;;2.14;57.85;98026.16;1733867;81;21030;-43
2021/12/04 09:27:34;;;;;;;19.30;8.25;;;;;;;2.06;56.37;98029.07;1731100;82;20130;-42
2021/12/04 09:35:13;;;;;;;11.28;6.33;;;;;;;2.16;56.92;98025.64;1726151;82;21014;-43
2021/12/04 10:32:26;;;;;;;12.35;6.92;;;;;;;2.44;56.56;97974.73;1718444;82;20984;-43
2021/12/04 10:35:01;;;;;;;19.57;8.65;;;;;;;2.45;56.21;97969.92;1718289;82;20991;-43
2021/12/04 10:37:29;;;;;;;12.03;7.40;;;;;;;2.52;56.70;97976.53;1718608;82;20991;-44
2021/12/04 10:40:00;;;;;;;13.38;8.10;;;;;;;2.36;55.92;97975.05;1718599;82;21078;-42
2021/12/04 10:42:33;;;;;;;12.07;7.72;;;;;;;2.40;56.41;97974.03;1716808;83;21023;-43
2021/12/04 10:44:57;;;;;;;14.10;8.13;;;;;;;2.49;56.78;97970.16;1717995;82;20992;-43
2021/12/04 10:47:27;;;;;;;14.47;7.70;;;;;;;2.55;57.15;97958.67;1718394;82;21461;-43
2021/12/04 10:52:58;;;;;;;14.83;7.78;;;;;;;2.59;56.78;97955.88;1718568;82;21140;-42
2021/12/04 10:58:34;;;;;;;14.78;8.28;;;;;;;2.59;56.86;97954.59;1718753;82;21087;-43
2021/12/04 11:01:19;;;;;;;14.23;8.70;;;;;;;2.59;57.12;97959.77;1717082;82;21059;-44
2021/12/04 11:03:43;;;;;;;18.45;8.28;;;;;;;2.56;56.36;97957.77;1717355;83;20995;-43
2021/12/04 11:36:55;;;;;;;16.95;8.08;;;;;;;2.87;57.02;97930.84;1731369;82;20986;-43
2021/12/04 11:39:20;;;;;;;17.07;9.45;;;;;;;2.82;55.96;97927.60;1728540;82;20948;-44
2021/12/04 11:41:40;;;;;;;19.00;9.30;;;;;;;2.84;56.70;97935.33;1729623;82;20999;-42
2021/12/04 11:44:11;;;;;;;18.12;9.55;;;;;;;2.80;56.39;97936.35;1730743;82;21026;-43
2021/12/04 11:46:45;;;;;;;20.65;8.95;;;;;;;2.78;56.43;97940.31;1730836;81;20986;-43
2021/12/04 11:49:16;;;;;;;18.67;8.83;;;;;;;2.80;56.77;97938.95;1731391;81;21488;-43
2021/12/04 11:51:59;;;;;;;16.93;8.90;;;;;;;2.84;56.43;97943.11;1731358;81;21031;-43
2021/12/04 11:54:30;;;;;;;20.12;9.58;;;;;;;2.87;56.82;97942.95;1731247;82;21508;-42
2021/12/04 11:57:09;;;;;;;15.30;8.08;;;;;;;2.90;56.81;97944.59;1731301;82;21003;-42
2021/12/04 11:59:39;;;;;;;14.58;8.60;;;;;;;2.90;56.61;97941.98;1731362;82;21003;-43
2021/12/04 12:02:10;;;;;;;19.45;9.60;;;;;;;2.95;56.85;97944.76;1731400;82;21011;-44
2021/12/04 12:04:41;;;;;;;16.48;9.08;;;;;;;2.97;56.72;97936.44;1731218;82;21066;-43
2021/12/04 12:07:20;;;;;;;14.50;8.03;;;;;;;2.93;56.30;97942.69;1731330;82;20979;-43
2021/12/04 12:09:50;;;;;;;20.30;9.30;;;;;;;2.88;56.85;97941.59;1731500;83;20979;-44
2021/12/04 12:12:18;;;;;;;20.30;10.70;;;;;;;2.91;57.18;97943.22;1731375;82;21086;-44
2021/12/04 12:14:51;;;;;;;16.75;9.85;;;;;;;2.82;56.76;97941.02;1731139;82;21027;-44
2021/12/04 12:17:33;;;;;;;17.75;9.38;;;;;;;2.85;57.20;97940.42;1731331;82;21011;-44
2021/12/04 12:20:00;;;;;;;17.55;9.43;;;;;;;2.79;56.94;97954.99;1731462;82;21007;-44
2021/12/04 12:25:30;;;;;;;16.07;8.33;;;;;;;2.73;57.69;97950.52;1731370;82;20995;-44
2021/12/04 12:31:49;;;;;;;14.38;8.73;;;;;;;2.62;58.16;97942.78;1730118;82;20963;-43
2021/12/04 12:36:18;;;;;;;12.80;7.67;;;;;;;2.69;58.83;97951.11;1726183;82;20988;-43
2021/12/04 12:39:08;;;;;;;10.60;6.95;;;;;;;2.65;59.54;97950.41;1725989;83;21002;-43
2021/12/04 12:41:44;;;;;;;12.40;7.53;;;;;;;2.60;60.86;97959.31;1726199;83;21038;-43
2021/12/04 12:44:30;;;;;;;14.15;7.15;;;;;;;2.42;64.26;97955.77;1726237;83;21014;-43
2021/12/04 12:47:07;;;;;;;12.65;7.22;;;;;;;2.28;67.61;97959.81;1726077;82;21832;-42
2021/12/04 12:49:38;;;;;;;15.75;7.12;;;;;;;2.15;68.89;97961.26;1726747;82;21517;-43
2021/12/04 12:52:09;;;;;;;15.18;7.80;;;;;;;2.09;70.08;97962.37;1726206;82;21508;-43
2021/12/04 12:54:46;;;;;;;12.88;7.47;;;;;;;2.06;70.19;97956.47;1724060;82;21536;-43
2021/12/04 12:57:30;;;;;;;10.80;7.12;;;;;;;2.03;72.78;97953.53;1725710;82;21054;-43
2021/12/04 13:11:47;;;;;;;10.98;5.62;;;;;;;2.05;74.40;97949.12;1726077;83;20990;-47
2021/12/04 13:14:22;;;;;;;11.53;6.10;;;;;;;2.12;73.86;97952.30;1726070;82;20976;-44
2021/12/04 13:17:02;;;;;;;10.63;5.92;;;;;;;2.11;74.68;97944.13;1726215;82;21520;-43
2021/12/04 13:19:29;;;;;;;11.33;6.60;;;;;;;2.09;75.62;97948.10;1726156;82;21051;-43
2021/12/04 13:22:03;;;;;;;10.50;6.05;;;;;;;2.06;76.17;97947.39;1726328;82;21492;-44
2021/12/04 13:24:34;;;;;;;13.28;7.00;;;;;;;2.01;76.72;97945.44;1726111;82;20991;-43
2021/12/04 13:29:41;;;;;;;14.53;7.72;;;;;;;2.05;75.64;97936.61;1728415;82;21047;-47
2021/12/04 13:32:10;;;;;;;17.40;8.35;;;;;;;1.98;76.19;97933.89;1730116;82;21568;-44
2021/12/04 13:34:40;;;;;;;14.20;8.23;;;;;;;1.94;75.79;97938.83;1731240;81;20975;-42
2021/12/04 13:37:05;;;;;;;14.98;8.45;;;;;;;1.87;76.28;97935.63;1731196;81;20991;-44
2021/12/04 13:39:32;;;;;;;17.52;9.58;;;;;;;1.89;75.70;97933.39;1731517;82;21027;-43
2021/12/04 13:41:58;;;;;;;18.77;11.90;;;;;;;1.85;76.81;97933.10;1731538;82;21014;-43
2021/12/04 13:44:27;;;;;;;15.85;9.28;;;;;;;1.90;77.07;97934.22;1731409;83;21034;-44
2021/12/04 13:47:02;;;;;;;18.07;9.73;;;;;;;1.86;75.83;97928.78;1731297;82;20991;-43
2021/12/04 13:49:40;;;;;;;17.87;9.70;;;;;;;1.87;76.69;97925.27;1731134;82;21047;-44
2021/12/04 13:52:12;;;;;;;19.70;11.00;;;;;;;1.85;76.99;97931.81;1731280;82;21006;-43
2021/12/04 13:54:50;;;;;;;29.00;18.32;;;;;;;1.86;75.65;97929.62;1731253;82;21011;-43
2021/12/04 13:57:16;;;;;;;;;;;;;;;1.85;76.61;97923.20;1733751;81;21002;-44
2021/12/04 13:59:44;;;;;;;30.95;17.98;;;;;;;1.75;78.38;97929.66;1731475;83;20183;-44
2021/12/04 14:02:29;;;;;;;28.45;14.03;;;;;;;1.76;78.30;97933.48;1731225;82;21487;-44
2021/12/04 14:05:08;;;;;;;29.27;14.13;;;;;;;1.78;78.51;97932.97;1731274;81;21511;-44
2021/12/04 14:07:35;;;;;;;31.27;16.65;;;;;;;1.73;77.97;97928.45;1731292;82;20998;-44
2021/12/04 14:10:18;;;;;;;27.35;14.05;;;;;;;1.79;77.56;97928.65;1731460;82;20995;-43
2021/12/04 14:12:45;;;;;;;37.38;17.15;;;;;;;1.79;76.93;97921.70;1731340;82;21460;-44
2021/12/04 14:15:15;;;;;;;34.92;17.10;;;;;;;1.78;77.12;97921.30;1731388;82;21046;-44
2021/12/04 14:17:42;;;;;;;31.65;17.05;;;;;;;1.83;77.33;97932.33;1731248;83;21010;-43
2021/12/04 14:20:11;;;;;;;29.07;16.42;;;;;;;1.88;77.27;97935.58;1731360;82;20999;-44
2021/12/04 14:22:47;;;;;;;38.58;18.12;;;;;;;1.85;77.08;97931.81;1731242;81;20999;-44
2021/12/04 14:25:14;;;;;;;40.05;16.77;;;;;;;1.87;77.17;97933.05;1731398;82;21003;-44
2021/12/04 14:27:40;;;;;;;43.52;20.02;;;;;;;1.83;76.59;97931.03;1731374;82;20971;-43
2021/12/04 14:30:11;;;;;;;35.65;18.42;;;;;;;1.79;76.17;97928.19;1731077;81;21030;-43
2021/12/04 14:32:40;;;;;;;33.33;16.75;;;;;;;1.75;77.42;97927.94;1731298;82;21496;-43
2021/12/04 14:35:12;;;;;;;35.23;17.48;;;;;;;1.70;77.27;97931.99;1731215;82;20963;-43
2021/12/04 14:37:41;;;;;;;37.38;20.23;;;;;;;1.66;77.90;97933.03;1731128;82;20971;-43